Sierra Vista, AZ

9:11 AM MST on October 22, 2014 (GMT -0700)
Pershing Plaza West | Change Station
CLOSE
Current Station
Personal Weather Station
Location: Fort Huachuca, AZ
Elevation: 4915 ft
Nearby Weather Stations

Elev 4915 ft 31.56 °N, 110.35 °W | Updated 13 seconds ago

Partly Cloudy
Partly Cloudy
68.7 °F
Feels Like 68.7 °F
N
2.2
Wind Variable Wind from North
Gusts 6.0 mph

Today
High -- | Low -- °F
--% Chance of Precip.
Yesterday
High -- | Low -- °F
Precip. -- in
6:29 AM 5:41 PM
Waning Crescent, 2% visible
Pressure 30.01 in
Visibility 10.0 miles
Clouds Few 5000 ft
Dew Point 51 °F
Humidity 54%
Rainfall 0.00 in
Snow Depth Not available.
UV 3 out of 12
Pollen 5.30 out of 12
Air Quality Not available.
Flu Activity No Activity
METAR KFHU 221555Z 00000KT 10SM FEW050 19/09 A3015 RMK SLP163

More Conditions Fewer Conditions

Pressure 30.01 in
Visibility 10.0 miles
Clouds Few 5000 ft
Dew Point 51 °F
Humidity 54%
Rainfall 0.00 in
Snow Depth Not available.
UV 3 out of 12
Pollen 5.30 out of 12
Air Quality Not available.
Flu Activity No Activity
METAR KFHU 221555Z 00000KT 10SM FEW050 19/09 A3015 RMK SLP163

More Conditions Fewer Conditions

10-Day Weather Forecast

Almanac

Astronomy

Oct. 22, 2014 Rise Set
Actual Time 6:29 AM MST 5:41 PM MST
Civil Twilight 6:04 AM MST 6:06 PM MST
Nautical Twilight 5:36 AM MST 6:34 PM MST
Astronomical Twilight 5:08 AM MST 7:02 PM MST
Moon 5:18 AM MST 5:07 PM MST
Length of Visible Light 12h 01m
Length of Day
11h 11m
Tomorrow will be 1m 47s shorter.
Waning Crescent, 2% of the Moon is Illuminated
Today
Waning Crescent
Oct 23
New
Oct 30
First Quarter
Nov 6
Full
Nov 14
Last Quarter

Today's Extremes

State Highs State Lows

Community

WunderPhotos

Upload Photos

1,763,955 photos uploaded!

Nearby

Snow Depth

Station Depth Elevation
Hannagan Meadows 0 in 9020 ft
Wildcat 0 in 7850 ft
Beaver Head 1 in 7990 ft
Coronado Trail 0 in 8400 ft
Maverick Fork 0 in 9200 ft

Earthquake Activity

City Distance Mag. Time & Date
No recent earthquake activity has been reported nearby.
Minimum magnitude displayed is 2.5.

Coastal Water Temperatures

Place Temperature
No Stations Reporting

Nearby Weather Stations